Time;durP1;ratioP1;P1;durP2;ratioP2;P2;SDS_P1;SDS_P2;PMS_P1;PMS_P2;Temp;Humidity;BMP_temperature;BMP_pressure;BME280_temperature;BME280_humidity;BME280_pressure;Samples;Min_cycle;Max_cycle;Signal;HPM_P1;HPM_P2
2021/12/20 00:00:49;;;;;;;;;;;2.50;99.90;;;;;;4978039;28;20004;-81
2021/12/20 00:03:15;;;;;;;;;;;2.50;99.90;;;;;;4968228;28;20288;-81
2021/12/20 00:05:41;;;;;;;;;;;2.50;99.90;;;;;;4963903;28;20410;-81
2021/12/20 00:08:06;;;;;;;;;;;2.60;99.90;;;;;;4984204;28;19976;-81
2021/12/20 00:10:32;;;;;;;;;;;2.60;99.90;;;;;;4943445;28;19918;-81
2021/12/20 00:12:58;;;;;;;;;;;2.60;99.90;;;;;;4974231;28;19925;-81
2021/12/20 00:15:24;;;;;;;;;;;2.60;99.90;;;;;;4978943;28;19925;-81
2021/12/20 00:17:50;;;;;;;;;;;2.70;99.90;;;;;;4969483;28;19914;-81
2021/12/20 00:20:17;;;;;;;;;;;2.60;99.90;;;;;;4970439;28;20044;-81
2021/12/20 00:22:43;;;;;;;;;;;2.70;99.90;;;;;;4967506;28;19915;-81
2021/12/20 00:25:09;;;;;;;;;;;2.70;99.90;;;;;;4954208;28;19937;-81
2021/12/20 00:27:35;;;;;;;;;;;2.70;99.90;;;;;;4943907;28;19973;-80
2021/12/20 00:30:01;;;;;;;;;;;2.80;99.90;;;;;;4971668;28;19914;-81
2021/12/20 00:32:27;;;;;;;;;;;2.80;99.90;;;;;;4938520;28;19922;-81
2021/12/20 00:34:52;;;;;;;;;;;2.80;99.90;;;;;;4961337;28;19914;-80
2021/12/20 00:40:21;;;;;;;;;;;2.90;99.90;;;;;;4957859;28;19919;-81
2021/12/20 00:42:52;;;;;;;;;;;2.80;99.90;;;;;;4968191;28;20717;-81
2021/12/20 00:45:18;;;;;;;;;;;2.80;99.90;;;;;;4934744;28;19926;-80
2021/12/20 00:47:44;;;;;;;;;;;2.80;99.90;;;;;;4988687;28;20149;-80
2021/12/20 00:50:10;;;;;;;;;;;2.80;99.90;;;;;;4954177;28;19952;-81
2021/12/20 00:52:36;;;;;;;;;;;2.90;99.90;;;;;;4981937;28;19922;-79
2021/12/20 00:55:02;;;;;;;;;;;2.80;99.90;;;;;;4969247;28;19924;-81
2021/12/20 00:57:28;;;;;;;;;;;2.80;99.90;;;;;;4960612;28;20001;-81
2021/12/20 00:59:53;;;;;;;;;;;2.90;99.90;;;;;;4968060;28;19937;-81
2021/12/20 01:02:19;;;;;;;;;;;2.90;99.90;;;;;;4938699;28;19930;-81
2021/12/20 01:04:44;;;;;;;;;;;2.90;99.90;;;;;;4985219;28;19918;-80
2021/12/20 01:07:10;;;;;;;;;;;2.90;99.90;;;;;;4955132;28;19984;-81
2021/12/20 01:09:36;;;;;;;;;;;2.90;99.90;;;;;;4982230;28;20377;-81
2021/12/20 01:12:05;;;;;;;;;;;2.90;99.90;;;;;;4989724;28;19939;-81
2021/12/20 01:14:33;;;;;;;;;;;2.90;99.90;;;;;;4988215;28;20435;-79
2021/12/20 01:17:05;;;;;;;;;;;2.90;99.90;;;;;;4972334;28;19979;-79
2021/12/20 01:19:31;;;;;;;;;;;2.90;99.90;;;;;;4995256;28;20341;-81
2021/12/20 01:21:57;;;;;;;;;;;2.90;99.90;;;;;;5007919;28;19914;-81
2021/12/20 01:24:22;;;;;;;;;;;2.90;99.90;;;;;;4975927;28;19918;-80
2021/12/20 01:26:48;;;;;;;;;;;2.90;99.90;;;;;;4970665;28;19918;-80
2021/12/20 01:29:14;;;;;;;;;;;2.90;99.90;;;;;;4973711;28;19922;-80
2021/12/20 01:31:39;;;;;;;;;;;2.90;99.90;;;;;;4941824;28;20334;-79
2021/12/20 01:34:05;;;;;;;;;;;2.90;99.90;;;;;;4988855;28;19922;-80
2021/12/20 01:36:31;;;;;;;;;;;2.90;99.90;;;;;;4933974;28;19919;-80
2021/12/20 01:38:56;;;;;;;;;;;2.90;99.90;;;;;;4971868;28;20005;-80
2021/12/20 01:41:22;;;;;;;;;;;2.90;99.90;;;;;;4974817;28;19914;-80
2021/12/20 01:43:48;;;;;;;;;;;2.90;99.90;;;;;;4934090;28;20384;-79
2021/12/20 01:46:13;;;;;;;;;;;2.90;99.90;;;;;;4941311;28;19925;-80
2021/12/20 01:48:41;;;;;;;;;;;2.90;99.90;;;;;;4973322;28;20046;-80
2021/12/20 01:53:33;;;;;;;;;;;2.80;99.90;;;;;;4987348;28;19914;-80
2021/12/20 01:55:59;;;;;;;;;;;2.80;99.90;;;;;;4972873;28;19918;-78
2021/12/20 01:58:25;;;;;;;;;;;2.80;99.90;;;;;;4969863;28;19984;-79
2021/12/20 02:03:33;;;;;;;;;;;2.80;99.90;;;;;;4965576;28;19948;-81
2021/12/20 02:06:02;;;;;;;;;;;2.80;99.90;;;;;;4986943;28;20078;-80
2021/12/20 02:08:29;;;;;;;;;;;2.80;99.90;;;;;;4970046;28;20011;-80
2021/12/20 02:10:56;;;;;;;;;;;2.80;99.90;;;;;;4955974;28;19918;-80
2021/12/20 02:13:24;;;;;;;;;;;2.80;99.90;;;;;;4970068;28;20317;-80
2021/12/20 02:15:50;;;;;;;;;;;2.80;99.90;;;;;;4971628;28;19969;-80
2021/12/20 02:18:16;;;;;;;;;;;2.80;99.90;;;;;;4973084;28;19922;-80
2021/12/20 02:20:41;;;;;;;;;;;2.70;99.90;;;;;;4972831;28;20361;-80
2021/12/20 02:23:08;;;;;;;;;;;2.70;99.90;;;;;;4984912;28;20030;-80
2021/12/20 02:25:34;;;;;;;;;;;2.70;99.90;;;;;;4980430;28;20364;-80
2021/12/20 02:28:05;;;;;;;;;;;2.70;99.90;;;;;;4969988;28;20310;-80
2021/12/20 02:38:26;;;;;;;;;;;2.70;99.90;;;;;;4972594;28;19930;-80
2021/12/20 02:41:00;;;;;;;;;;;2.70;99.90;;;;;;4972569;28;20316;-79
2021/12/20 02:43:28;;;;;;;;;;;2.70;99.90;;;;;;4983297;28;19968;-80
2021/12/20 02:45:58;;;;;;;;;;;2.60;99.90;;;;;;4968375;28;20304;-80
2021/12/20 02:48:24;;;;;;;;;;;2.60;99.90;;;;;;4988519;28;19925;-78
2021/12/20 02:50:53;;;;;;;;;;;2.60;99.90;;;;;;4973485;28;19918;-78
2021/12/20 02:53:18;;;;;;;;;;;2.60;99.90;;;;;;4969937;28;19918;-80
2021/12/20 02:55:44;;;;;;;;;;;2.60;99.90;;;;;;4987982;28;19921;-80
2021/12/20 02:58:09;;;;;;;;;;;2.60;99.90;;;;;;4976472;28;19918;-79
2021/12/20 03:00:35;;;;;;;;;;;2.60;99.90;;;;;;4961699;28;19914;-80
2021/12/20 03:03:01;;;;;;;;;;;2.60;99.90;;;;;;4977608;28;19960;-80
2021/12/20 03:05:26;;;;;;;;;;;2.60;99.90;;;;;;4984910;28;19918;-79
2021/12/20 03:07:52;;;;;;;;;;;2.60;99.90;;;;;;4940145;28;19994;-80
2021/12/20 03:10:19;;;;;;;;;;;2.60;99.90;;;;;;4968664;28;19915;-80
2021/12/20 03:12:46;;;;;;;;;;;2.60;99.90;;;;;;4985804;28;20384;-78
2021/12/20 03:15:16;;;;;;;;;;;2.60;99.90;;;;;;4965473;28;19918;-80
2021/12/20 03:17:42;;;;;;;;;;;2.60;99.90;;;;;;4987590;28;19921;-80
2021/12/20 03:20:08;;;;;;;;;;;2.60;99.90;;;;;;4956152;28;20001;-80
2021/12/20 03:22:34;;;;;;;;;;;2.50;99.90;;;;;;4972962;28;19918;-80
2021/12/20 03:25:00;;;;;;;;;;;2.50;99.90;;;;;;4965231;28;20013;-80
2021/12/20 03:27:25;;;;;;;;;;;2.40;99.90;;;;;;4981729;28;19949;-80
2021/12/20 03:29:51;;;;;;;;;;;2.40;99.90;;;;;;4967932;28;19992;-78
2021/12/20 03:32:17;;;;;;;;;;;2.40;99.90;;;;;;4974186;28;20462;-80
2021/12/20 03:34:42;;;;;;;;;;;2.30;99.90;;;;;;4951490;28;19919;-80
2021/12/20 03:37:08;;;;;;;;;;;2.30;99.90;;;;;;4987194;28;20529;-79
2021/12/20 03:39:33;;;;;;;;;;;2.20;99.90;;;;;;4963883;28;19918;-79
2021/12/20 03:42:00;;;;;;;;;;;2.20;99.90;;;;;;4955479;28;19922;-80
2021/12/20 03:44:26;;;;;;;;;;;2.10;99.90;;;;;;4938164;28;19953;-78
2021/12/20 03:46:51;;;;;;;;;;;2.10;99.90;;;;;;4971293;28;19941;-79
2021/12/20 03:49:17;;;;;;;;;;;2.00;99.90;;;;;;4978364;28;19968;-80
2021/12/20 03:51:43;;;;;;;;;;;2.00;99.90;;;;;;4986850;28;19915;-80
2021/12/20 03:54:08;;;;;;;;;;;1.90;99.90;;;;;;4946195;28;20392;-79
2021/12/20 03:56:34;;;;;;;;;;;1.90;99.90;;;;;;4947712;28;20000;-79
2021/12/20 03:59:00;;;;;;;;;;;1.90;99.90;;;;;;4985783;28;19919;-80
2021/12/20 04:01:26;;;;;;;;;;;1.80;99.90;;;;;;4971256;28;20395;-80
2021/12/20 04:03:52;;;;;;;;;;;1.70;99.90;;;;;;4929564;28;19919;-80
2021/12/20 04:06:18;;;;;;;;;;;1.70;99.90;;;;;;4985086;28;19977;-80
2021/12/20 04:08:43;;;;;;;;;;;1.70;99.90;;;;;;4930040;28;20420;-81
2021/12/20 04:11:09;;;;;;;;;;;1.60;99.90;;;;;;4966615;28;19994;-80
2021/12/20 04:13:35;;;;;;;;;;;1.60;99.90;;;;;;4966150;28;19930;-79
2021/12/20 04:16:01;;;;;;;;;;;1.50;99.90;;;;;;4938669;28;19918;-78
2021/12/20 04:18:27;;;;;;;;;;;1.50;99.90;;;;;;4989454;28;19926;-77
2021/12/20 04:20:53;;;;;;;;;;;1.40;99.90;;;;;;4938861;28;19924;-79
2021/12/20 04:23:19;;;;;;;;;;;1.30;99.90;;;;;;4954873;28;20000;-80
2021/12/20 04:25:45;;;;;;;;;;;1.30;99.90;;;;;;4970376;28;19918;-81
2021/12/20 04:28:10;;;;;;;;;;;1.20;99.90;;;;;;4970921;28;19922;-80
2021/12/20 04:30:36;;;;;;;;;;;1.20;99.90;;;;;;4984957;28;20301;-81
2021/12/20 04:33:02;;;;;;;;;;;1.10;99.90;;;;;;4985312;28;20288;-80
2021/12/20 04:35:29;;;;;;;;;;;1.10;99.90;;;;;;4970511;28;19914;-80
2021/12/20 04:37:56;;;;;;;;;;;1.00;99.90;;;;;;4984686;28;20017;-81
2021/12/20 04:40:22;;;;;;;;;;;1.00;99.90;;;;;;4967448;28;19915;-81
2021/12/20 04:42:49;;;;;;;;;;;0.90;99.90;;;;;;4968049;28;19921;-80
2021/12/20 04:45:14;;;;;;;;;;;0.90;99.90;;;;;;4970250;28;20357;-81
2021/12/20 04:47:40;;;;;;;;;;;0.90;99.90;;;;;;4981843;28;19914;-81
2021/12/20 04:50:06;;;;;;;;;;;0.90;99.90;;;;;;4978335;28;19922;-78
2021/12/20 04:52:32;;;;;;;;;;;0.80;99.90;;;;;;4938324;28;20361;-80
2021/12/20 04:54:57;;;;;;;;;;;0.80;99.90;;;;;;4944278;28;20002;-80
2021/12/20 04:57:23;;;;;;;;;;;0.70;99.90;;;;;;4966990;28;19922;-80
2021/12/20 04:59:48;;;;;;;;;;;0.70;99.90;;;;;;4975681;28;19962;-80
2021/12/20 05:02:14;;;;;;;;;;;0.60;99.90;;;;;;4966438;28;19973;-80
2021/12/20 05:04:39;;;;;;;;;;;0.60;99.90;;;;;;4970551;28;19962;-80
2021/12/20 05:07:05;;;;;;;;;;;0.60;99.90;;;;;;4971305;28;19926;-80
2021/12/20 05:09:37;;;;;;;;;;;0.50;99.90;;;;;;4937812;28;19984;-79
2021/12/20 05:12:11;;;;;;;;;;;0.50;99.90;;;;;;4941587;28;19976;-80
2021/12/20 05:14:40;;;;;;;;;;;0.50;99.90;;;;;;4953556;28;20321;-79
2021/12/20 05:17:05;;;;;;;;;;;0.50;99.90;;;;;;4991641;28;20024;-79
2021/12/20 05:19:31;;;;;;;;;;;0.40;99.90;;;;;;4936835;28;19965;-79
2021/12/20 05:21:57;;;;;;;;;;;0.40;99.90;;;;;;4938351;28;20336;-78
2021/12/20 05:24:22;;;;;;;;;;;0.40;99.90;;;;;;4944696;28;20001;-79
2021/12/20 05:26:48;;;;;;;;;;;0.40;99.90;;;;;;4966531;28;20025;-79
2021/12/20 05:29:13;;;;;;;;;;;0.30;99.90;;;;;;4950565;28;19923;-79
2021/12/20 05:31:39;;;;;;;;;;;0.40;99.90;;;;;;4976079;28;19918;-77
2021/12/20 05:34:05;;;;;;;;;;;0.40;99.90;;;;;;4935693;28;19938;-77
2021/12/20 05:36:31;;;;;;;;;;;0.30;99.90;;;;;;4949495;28;19966;-79
2021/12/20 05:38:56;;;;;;;;;;;0.30;99.90;;;;;;4948794;28;21751;-79
2021/12/20 05:41:22;;;;;;;;;;;0.30;99.90;;;;;;4981093;28;19925;-79
2021/12/20 05:43:48;;;;;;;;;;;0.30;99.90;;;;;;4991691;28;20312;-77
2021/12/20 05:46:14;;;;;;;;;;;0.30;99.90;;;;;;4977405;28;20383;-79
2021/12/20 05:48:39;;;;;;;;;;;0.20;99.90;;;;;;4956415;28;19929;-76
2021/12/20 05:51:05;;;;;;;;;;;0.20;99.90;;;;;;4956588;28;19922;-79
2021/12/20 05:53:31;;;;;;;;;;;0.20;99.90;;;;;;4976694;28;19965;-79
2021/12/20 05:55:56;;;;;;;;;;;0.20;99.90;;;;;;4971960;28;19945;-79
2021/12/20 05:58:22;;;;;;;;;;;0.20;99.90;;;;;;4957708;28;19977;-77
2021/12/20 06:00:47;;;;;;;;;;;0.20;99.90;;;;;;4941381;28;19918;-79
2021/12/20 06:03:13;;;;;;;;;;;0.20;99.90;;;;;;4950263;28;19998;-79
2021/12/20 06:05:41;;;;;;;;;;;0.20;99.90;;;;;;4963430;28;20387;-78
2021/12/20 06:08:07;;;;;;;;;;;0.20;99.90;;;;;;4989124;28;20008;-79
2021/12/20 06:10:33;;;;;;;;;;;0.10;99.90;;;;;;4968996;28;19914;-80
2021/12/20 06:12:59;;;;;;;;;;;0.10;99.90;;;;;;4991053;28;19918;-79
2021/12/20 06:15:24;;;;;;;;;;;0.10;99.90;;;;;;4937894;28;19925;-77
2021/12/20 06:17:50;;;;;;;;;;;0.10;99.90;;;;;;4974751;28;19926;-80
2021/12/20 06:20:16;;;;;;;;;;;0.00;99.90;;;;;;4944649;28;19922;-79
2021/12/20 06:22:41;;;;;;;;;;;0.00;99.90;;;;;;4986828;28;19919;-79
2021/12/20 06:25:07;;;;;;;;;;;0.00;99.90;;;;;;4969808;28;19914;-79
2021/12/20 06:27:33;;;;;;;;;;;0.00;99.90;;;;;;4986027;28;19919;-77
2021/12/20 06:29:58;;;;;;;;;;;0.00;99.90;;;;;;4990547;28;19915;-79
2021/12/20 06:32:24;;;;;;;;;;;0.00;99.90;;;;;;4973024;28;19944;-79
2021/12/20 06:34:49;;;;;;;;;;;0.00;99.90;;;;;;4972247;28;20001;-79
2021/12/20 06:37:15;;;;;;;;;;;0.00;99.90;;;;;;4965294;28;20060;-76
2021/12/20 06:39:41;;;;;;;;;;;0.00;99.90;;;;;;5001520;28;19918;-80
2021/12/20 06:42:07;;;;;;;;;;;0.00;99.90;;;;;;4972231;28;20351;-79
2021/12/20 06:44:32;;;;;;;;;;;0.00;99.90;;;;;;4940807;28;19922;-79
2021/12/20 06:46:58;;;;;;;;;;;0.00;99.90;;;;;;4985590;28;19918;-79
2021/12/20 06:49:25;;;;;;;;;;;0.00;99.90;;;;;;4974020;28;20001;-77
2021/12/20 06:51:52;;;;;;;;;;;-0.10;99.90;;;;;;4986775;28;19918;-77
2021/12/20 06:54:19;;;;;;;;;;;-0.10;99.90;;;;;;4965976;28;19969;-75
2021/12/20 06:56:45;;;;;;;;;;;-0.10;99.90;;;;;;4985376;28;19918;-78
2021/12/20 06:59:10;;;;;;;;;;;-0.10;99.90;;;;;;4993003;28;20016;-77
2021/12/20 07:01:36;;;;;;;;;;;-0.10;99.90;;;;;;4986995;28;20299;-76
2021/12/20 07:04:02;;;;;;;;;;;0.00;99.90;;;;;;4993198;28;20356;-76
2021/12/20 07:06:28;;;;;;;;;;;0.00;99.90;;;;;;4974403;28;19921;-77
2021/12/20 07:08:54;;;;;;;;;;;-0.10;99.90;;;;;;4998062;28;19968;-77
2021/12/20 07:11:20;;;;;;;;;;;-0.10;99.90;;;;;;4975286;28;20428;-78
2021/12/20 07:13:45;;;;;;;;;;;-0.10;99.90;;;;;;4988330;28;19930;-77
2021/12/20 07:16:12;;;;;;;;;;;-0.10;99.90;;;;;;4991325;28;20431;-78
2021/12/20 07:18:38;;;;;;;;;;;-0.10;99.90;;;;;;4997937;28;20380;-79
2021/12/20 07:21:03;;;;;;;;;;;-0.10;99.90;;;;;;4981601;28;19925;-78
2021/12/20 07:23:29;;;;;;;;;;;-0.10;99.90;;;;;;4962309;28;19930;-77
2021/12/20 07:25:54;;;;;;;;;;;-0.10;99.90;;;;;;4997552;28;20041;-77
2021/12/20 07:28:20;;;;;;;;;;;-0.10;99.90;;;;;;4973723;28;19974;-78
2021/12/20 07:30:46;;;;;;;;;;;-0.20;99.90;;;;;;4978056;28;19924;-78
2021/12/20 07:33:12;;;;;;;;;;;-0.20;99.90;;;;;;4970099;28;19914;-78
2021/12/20 07:35:37;;;;;;;;;;;-0.20;99.90;;;;;;4941577;28;20380;-77
2021/12/20 07:38:04;;;;;;;;;;;-0.20;99.90;;;;;;4980172;28;20234;-76
2021/12/20 07:40:30;;;;;;;;;;;-0.20;99.90;;;;;;4980008;28;19909;-77
2021/12/20 07:42:55;;;;;;;;;;;-0.20;99.90;;;;;;4976609;28;20431;-77
2021/12/20 07:45:21;;;;;;;;;;;-0.20;99.90;;;;;;4966068;28;19969;-79
2021/12/20 07:47:48;;;;;;;;;;;-0.20;99.90;;;;;;4996215;28;19913;-78
2021/12/20 07:50:13;;;;;;;;;;;-0.20;99.90;;;;;;4982780;28;19918;-78
2021/12/20 07:52:39;;;;;;;;;;;-0.20;99.90;;;;;;4967472;28;20632;-77
2021/12/20 07:55:06;;;;;;;;;;;-0.20;99.90;;;;;;4972078;28;19934;-78
2021/12/20 07:57:31;;;;;;;;;;;-0.20;99.90;;;;;;4956552;28;19965;-78
2021/12/20 07:59:57;;;;;;;;;;;-0.20;99.90;;;;;;4964666;28;20632;-77
2021/12/20 08:02:23;;;;;;;;;;;-0.20;99.90;;;;;;4991479;28;19914;-79
2021/12/20 08:04:50;;;;;;;;;;;-0.20;99.90;;;;;;4944266;28;20005;-77
2021/12/20 08:07:18;;;;;;;;;;;-0.30;99.90;;;;;;4953540;28;19919;-78
2021/12/20 08:09:44;;;;;;;;;;;-0.20;99.90;;;;;;4982683;28;19993;-79
2021/12/20 08:12:09;;;;;;;;;;;-0.20;99.90;;;;;;4993249;28;19918;-77
2021/12/20 08:14:35;;;;;;;;;;;-0.20;99.90;;;;;;4963581;28;20439;-77
2021/12/20 08:17:01;;;;;;;;;;;-0.10;99.90;;;;;;4977766;28;19922;-79
2021/12/20 08:19:26;;;;;;;;;;;-0.10;99.90;;;;;;4968941;28;19922;-78
2021/12/20 08:21:52;;;;;;;;;;;-0.10;99.90;;;;;;4964783;28;19965;-79
2021/12/20 08:24:18;;;;;;;;;;;-0.10;99.90;;;;;;4973594;28;19950;-77
2021/12/20 08:26:43;;;;;;;;;;;-0.10;99.90;;;;;;4931279;28;19922;-77
2021/12/20 08:29:09;;;;;;;;;;;-0.10;99.90;;;;;;4952478;28;20316;-76
2021/12/20 08:31:36;;;;;;;;;;;-0.10;99.90;;;;;;4986905;28;20014;-77
2021/12/20 08:34:02;;;;;;;;;;;0.00;99.90;;;;;;4947119;28;20378;-77
2021/12/20 08:36:28;;;;;;;;;;;0.00;99.90;;;;;;4974572;28;20403;-77
2021/12/20 08:38:54;;;;;;;;;;;0.00;99.90;;;;;;4981771;28;19914;-77
2021/12/20 08:41:19;;;;;;;;;;;0.00;99.90;;;;;;4965727;28;19929;-76
2021/12/20 08:43:45;;;;;;;;;;;0.10;99.90;;;;;;4958439;28;19918;-77
2021/12/20 08:46:10;;;;;;;;;;;0.10;99.90;;;;;;4979673;28;19996;-79
2021/12/20 08:48:36;;;;;;;;;;;0.10;99.90;;;;;;4934217;28;19926;-79
2021/12/20 08:51:03;;;;;;;;;;;0.10;99.90;;;;;;4966393;28;19936;-78
2021/12/20 08:53:29;;;;;;;;;;;0.20;99.90;;;;;;4962233;28;19985;-80
2021/12/20 08:55:55;;;;;;;;;;;0.20;99.90;;;;;;4929434;28;20365;-78
2021/12/20 08:58:21;;;;;;;;;;;0.30;99.90;;;;;;4979836;28;20301;-80
2021/12/20 09:00:47;;;;;;;;;;;0.30;99.90;;;;;;4979481;28;19917;-79
2021/12/20 09:03:12;;;;;;;;;;;0.40;99.90;;;;;;4941351;28;20331;-76
2021/12/20 09:05:38;;;;;;;;;;;0.40;99.90;;;;;;4945281;28;19925;-77
2021/12/20 09:08:06;;;;;;;;;;;0.40;99.90;;;;;;4963025;28;19922;-80
2021/12/20 09:10:32;;;;;;;;;;;0.50;99.90;;;;;;4978787;28;20365;-80
2021/12/20 09:12:58;;;;;;;;;;;0.50;99.90;;;;;;4966928;28;19922;-79
2021/12/20 09:15:24;;;;;;;;;;;0.60;99.90;;;;;;4951925;28;19973;-77
2021/12/20 09:17:54;;;;;;;;;;;0.70;99.90;;;;;;4971301;28;19941;-77
2021/12/20 09:20:21;;;;;;;;;;;0.70;99.90;;;;;;4973343;28;19918;-79
2021/12/20 09:22:54;;;;;;;;;;;0.80;99.90;;;;;;4975553;28;20376;-78
2021/12/20 09:25:21;;;;;;;;;;;0.80;99.90;;;;;;4969822;28;19915;-77
2021/12/20 09:27:47;;;;;;;;;;;0.80;99.90;;;;;;4986881;28;19918;-76
2021/12/20 09:30:13;;;;;;;;;;;0.80;99.90;;;;;;4989555;28;20459;-76
2021/12/20 09:32:39;;;;;;;;;;;0.80;99.90;;;;;;4986675;28;19918;-75
2021/12/20 09:35:05;;;;;;;;;;;0.90;99.90;;;;;;4987725;28;19926;-77
2021/12/20 09:37:30;;;;;;;;;;;0.90;99.90;;;;;;4972836;28;19920;-77
2021/12/20 09:39:56;;;;;;;;;;;0.90;99.90;;;;;;4989239;28;20406;-77
2021/12/20 09:42:22;;;;;;;;;;;0.90;99.90;;;;;;4981391;28;19929;-77
2021/12/20 09:44:48;;;;;;;;;;;1.00;99.90;;;;;;4978640;28;20450;-77
2021/12/20 09:47:14;;;;;;;;;;;1.00;99.90;;;;;;4981652;28;19924;-78
2021/12/20 09:49:40;;;;;;;;;;;1.10;99.90;;;;;;4977594;28;19922;-77
2021/12/20 09:52:05;;;;;;;;;;;1.10;99.90;;;;;;4978967;28;19976;-77
2021/12/20 09:54:31;;;;;;;;;;;1.10;99.90;;;;;;4954754;28;19926;-77
2021/12/20 09:56:57;;;;;;;;;;;1.10;99.90;;;;;;4984908;28;19913;-77
2021/12/20 09:59:26;;;;;;;;;;;1.20;99.90;;;;;;4986641;28;19922;-77
2021/12/20 10:01:53;;;;;;;;;;;1.20;99.90;;;;;;4973191;28;20017;-76
2021/12/20 10:04:20;;;;;;;;;;;1.20;99.90;;;;;;4966402;28;19996;-78
2021/12/20 10:06:50;;;;;;;;;;;1.20;99.90;;;;;;4969692;28;20046;-77
2021/12/20 10:09:16;;;;;;;;;;;1.20;99.90;;;;;;4940209;28;20373;-78
2021/12/20 10:11:43;;;;;;;;;;;1.20;99.90;;;;;;4957545;28;20296;-76
2021/12/20 10:14:10;;;;;;;;;;;1.30;99.90;;;;;;4993437;28;19918;-77
2021/12/20 10:16:36;;;;;;;;;;;1.40;99.90;;;;;;4987374;28;19913;-78
2021/12/20 10:19:03;;;;;;;;;;;1.40;99.90;;;;;;4988603;28;19973;-76
2021/12/20 10:21:37;;;;;;;;;;;1.40;99.90;;;;;;4972678;28;19914;-77
2021/12/20 10:24:02;;;;;;;;;;;1.40;99.90;;;;;;4974805;28;20185;-77
2021/12/20 10:26:28;;;;;;;;;;;1.40;99.90;;;;;;4949134;28;19926;-79
2021/12/20 10:28:54;;;;;;;;;;;1.40;99.90;;;;;;4965197;28;19922;-77
2021/12/20 10:31:21;;;;;;;;;;;1.40;99.90;;;;;;4964465;28;20005;-78
2021/12/20 10:33:54;;;;;;;;;;;1.40;99.90;;;;;;4991984;28;19922;-77
2021/12/20 10:36:19;;;;;;;;;;;1.40;99.90;;;;;;4968360;28;20021;-77
2021/12/20 10:38:48;;;;;;;;;;;1.40;99.90;;;;;;4942927;28;20004;-77
2021/12/20 10:41:25;;;;;;;;;;;1.40;99.90;;;;;;4999301;28;19914;-77
2021/12/20 10:43:57;;;;;;;;;;;1.40;99.90;;;;;;4977686;28;19918;-77
2021/12/20 10:46:24;;;;;;;;;;;1.40;99.90;;;;;;4971975;28;19914;-76
2021/12/20 10:48:51;;;;;;;;;;;1.40;99.90;;;;;;4976040;28;19964;-80
2021/12/20 10:51:18;;;;;;;;;;;1.40;99.90;;;;;;4956937;28;19922;-78
2021/12/20 10:53:45;;;;;;;;;;;1.40;99.90;;;;;;4991781;28;19925;-78
2021/12/20 10:56:11;;;;;;;;;;;1.40;99.90;;;;;;4990192;28;19921;-78
2021/12/20 10:58:38;;;;;;;;;;;1.40;99.90;;;;;;4978635;28;19925;-77
2021/12/20 11:01:17;;;;;;;;;;;1.40;99.90;;;;;;4993855;28;20438;-78
2021/12/20 11:03:44;;;;;;;;;;;1.40;99.90;;;;;;4954289;28;19918;-79
2021/12/20 11:11:28;;;;;;;;;;;1.50;99.90;;;;;;4971479;28;19914;-79
2021/12/20 11:13:54;;;;;;;;;;;1.50;99.90;;;;;;4978091;28;19918;-80
2021/12/20 11:16:40;;;;;;;;;;;1.50;99.90;;;;;;4969316;28;20068;-79
2021/12/20 11:19:06;;;;;;;;;;;1.60;99.90;;;;;;4999231;28;19918;-77
2021/12/20 11:21:32;;;;;;;;;;;1.60;99.90;;;;;;4982379;28;19921;-78
2021/12/20 11:24:01;;;;;;;;;;;1.60;99.90;;;;;;4981607;28;19914;-79
2021/12/20 11:26:29;;;;;;;;;;;1.60;99.90;;;;;;4973218;28;19926;-80
2021/12/20 11:28:55;;;;;;;;;;;1.60;99.90;;;;;;4993706;28;19922;-79
2021/12/20 11:31:21;;;;;;;;;;;1.60;99.90;;;;;;4975542;28;19914;-80
2021/12/20 11:33:47;;;;;;;;;;;1.50;99.90;;;;;;4959280;28;19985;-79
2021/12/20 11:36:13;;;;;;;;;;;1.60;99.90;;;;;;4995291;28;20444;-78
2021/12/20 11:38:39;;;;;;;;;;;1.50;99.90;;;;;;4968593;28;19918;-81
2021/12/20 11:41:05;;;;;;;;;;;1.60;99.90;;;;;;4983549;28;19914;-79
2021/12/20 11:43:31;;;;;;;;;;;1.50;99.90;;;;;;4973964;28;19922;-80
2021/12/20 11:45:57;;;;;;;;;;;1.50;99.90;;;;;;4969350;28;19976;-80
2021/12/20 11:48:24;;;;;;;;;;;1.40;99.90;;;;;;4986588;28;19922;-78
2021/12/20 11:50:54;;;;;;;;;;;1.50;99.90;;;;;;4968992;28;19923;-80
2021/12/20 11:53:20;;;;;;;;;;;1.50;99.90;;;;;;4991763;28;19921;-81
2021/12/20 11:55:54;;;;;;;;;;;1.50;99.90;;;;;;4988635;28;19914;-79
2021/12/20 11:58:20;;;;;;;;;;;1.50;99.90;;;;;;4947865;28;19919;-80
2021/12/20 12:00:49;;;;;;;;;;;1.50;99.90;;;;;;4990206;28;19914;-80
2021/12/20 12:03:15;;;;;;;;;;;1.50;99.90;;;;;;4947036;28;19918;-81
2021/12/20 12:05:49;;;;;;;;;;;1.50;99.90;;;;;;4985404;28;20005;-80
2021/12/20 12:08:32;;;;;;;;;;;1.40;99.90;;;;;;4992639;28;19918;-81
2021/12/20 12:11:06;;;;;;;;;;;1.40;99.90;;;;;;4964515;28;19936;-80
2021/12/20 12:13:59;;;;;;;;;;;1.40;99.90;;;;;;4982947;28;19987;-80
2021/12/20 12:16:46;;;;;;;;;;;1.50;99.90;;;;;;4979741;28;20422;-79
2021/12/20 12:19:11;;;;;;;;;;;1.50;99.90;;;;;;4976658;28;19914;-81
2021/12/20 12:21:41;;;;;;;;;;;1.50;99.90;;;;;;4978565;28;19925;-82
2021/12/20 12:24:08;;;;;;;;;;;1.50;99.90;;;;;;4966263;28;19965;-78
2021/12/20 12:26:35;;;;;;;;;;;1.50;99.90;;;;;;4989452;28;19929;-80
2021/12/20 12:29:01;;;;;;;;;;;1.60;99.90;;;;;;4990023;28;20415;-80
2021/12/20 12:31:47;;;;;;;;;;;1.60;99.90;;;;;;4968320;28;19930;-80
2021/12/20 12:34:13;;;;;;;;;;;1.50;99.90;;;;;;4970010;28;20751;-79
2021/12/20 12:36:40;;;;;;;;;;;1.60;99.90;;;;;;4970678;28;19929;-79
2021/12/20 12:39:08;;;;;;;;;;;1.60;99.90;;;;;;4975117;28;19922;-81
2021/12/20 12:41:47;;;;;;;;;;;1.60;99.90;;;;;;4981161;28;20016;-81
2021/12/20 12:44:27;;;;;;;;;;;1.50;99.90;;;;;;4986053;28;19944;-81
2021/12/20 12:47:04;;;;;;;;;;;1.50;99.90;;;;;;4955136;28;19925;-80
2021/12/20 12:49:31;;;;;;;;;;;1.40;99.90;;;;;;5000997;28;19918;-80
2021/12/20 12:52:08;;;;;;;;;;;1.40;99.90;;;;;;4953673;28;20388;-81
2021/12/20 12:54:34;;;;;;;;;;;1.50;99.90;;;;;;4934817;28;19918;-80
2021/12/20 12:57:08;;;;;;;;;;;1.40;99.90;;;;;;4993087;28;20353;-78
2021/12/20 12:59:37;;;;;;;;;;;1.40;99.90;;;;;;4962599;28;19918;-81
2021/12/20 13:02:11;;;;;;;;;;;1.40;99.90;;;;;;4975577;28;20382;-80
2021/12/20 13:04:51;;;;;;;;;;;1.40;99.90;;;;;;4945751;28;20300;-77
2021/12/20 13:07:37;;;;;;;;;;;1.30;99.90;;;;;;4938392;28;19922;-80
2021/12/20 13:10:04;;;;;;;;;;;1.40;99.90;;;;;;4948241;28;19976;-79
2021/12/20 13:17:34;;;;;;;;;;;1.40;99.90;;;;;;4970089;28;19918;-80
2021/12/20 13:20:12;;;;;;;;;;;1.40;99.90;;;;;;4999359;28;19926;-80
2021/12/20 13:22:38;;;;;;;;;;;1.50;99.90;;;;;;4959478;28;20024;-79
2021/12/20 13:25:03;;;;;;;;;;;1.50;99.90;;;;;;4991694;28;20513;-80
2021/12/20 13:27:30;;;;;;;;;;;1.50;99.90;;;;;;4993371;28;19925;-81
2021/12/20 13:29:55;;;;;;;;;;;1.40;99.90;;;;;;4941548;28;19918;-80
2021/12/20 13:32:21;;;;;;;;;;;1.30;99.90;;;;;;4987106;28;20295;-79
2021/12/20 13:34:47;;;;;;;;;;;1.30;99.90;;;;;;4937751;28;19926;-79
2021/12/20 13:37:12;;;;;;;;;;;1.30;99.90;;;;;;4994430;28;19919;-79
2021/12/20 13:39:39;;;;;;;;;;;1.30;99.90;;;;;;4931238;28;19945;-80
2021/12/20 13:42:09;;;;;;;;;;;1.30;99.90;;;;;;4971279;28;19941;-79
2021/12/20 13:44:35;;;;;;;;;;;1.30;99.90;;;;;;4972189;28;19914;-79
2021/12/20 13:47:05;;;;;;;;;;;1.30;99.90;;;;;;4945933;28;20423;-80
2021/12/20 13:49:30;;;;;;;;;;;1.20;99.90;;;;;;4969184;28;19918;-81
2021/12/20 13:52:03;;;;;;;;;;;1.20;99.90;;;;;;4971052;28;19924;-80
2021/12/20 13:54:35;;;;;;;;;;;1.20;99.90;;;;;;4979948;28;19997;-78
2021/12/20 13:57:01;;;;;;;;;;;1.20;99.90;;;;;;4986859;28;19915;-79
2021/12/20 13:59:28;;;;;;;;;;;1.10;99.90;;;;;;4983040;28;19925;-81
2021/12/20 14:01:55;;;;;;;;;;;1.10;99.90;;;;;;4982637;28;20270;-79
2021/12/20 14:04:33;;;;;;;;;;;1.10;99.90;;;;;;4964995;28;19917;-80
2021/12/20 14:06:59;;;;;;;;;;;1.10;99.90;;;;;;4948220;28;20300;-80
2021/12/20 14:09:36;;;;;;;;;;;1.10;99.90;;;;;;4971434;28;20270;-80
2021/12/20 14:12:08;;;;;;;;;;;1.10;99.90;;;;;;4975008;28;19957;-80
2021/12/20 14:14:34;;;;;;;;;;;1.10;99.90;;;;;;4970050;28;20288;-79
2021/12/20 14:17:00;;;;;;;;;;;1.00;99.90;;;;;;4966345;28;19923;-80
2021/12/20 14:19:45;;;;;;;;;;;1.00;99.90;;;;;;4973227;28;20471;-79
2021/12/20 14:22:10;;;;;;;;;;;1.00;99.90;;;;;;4997874;28;19926;-80
2021/12/20 14:24:37;;;;;;;;;;;1.00;99.90;;;;;;4944395;28;19922;-80
2021/12/20 14:27:03;;;;;;;;;;;1.00;99.90;;;;;;4975573;28;19918;-80
2021/12/20 14:29:32;;;;;;;;;;;1.00;99.90;;;;;;4965049;28;19929;-79
2021/12/20 14:32:00;;;;;;;;;;;0.90;99.90;;;;;;4993942;28;19914;-79
2021/12/20 14:34:30;;;;;;;;;;;0.90;99.90;;;;;;4983412;28;20388;-80
2021/12/20 14:37:05;;;;;;;;;;;0.80;99.90;;;;;;4969738;28;20376;-80
2021/12/20 14:39:39;;;;;;;;;;;0.80;99.90;;;;;;4975587;28;20301;-79
2021/12/20 14:42:04;;;;;;;;;;;0.70;99.90;;;;;;4984638;28;19937;-79
2021/12/20 14:44:39;;;;;;;;;;;0.70;99.90;;;;;;4959742;28;19918;-80
2021/12/20 14:50:25;;;;;;;;;;;0.60;99.90;;;;;;4974889;28;20004;-80
2021/12/20 14:52:39;;;;;;;;;;;0.60;99.90;;;;;;4975771;28;20584;-80
2021/12/20 14:55:12;;;;;;;;;;;0.60;99.90;;;;;;4971156;28;20052;-80
2021/12/20 14:57:46;;;;;;;;;;;0.60;99.90;;;;;;4983652;28;19925;-80